Aegean Tiffany — SVAE9 — position and weather

sailwx.info

Track history (hours):
 
Tides and Currents Weather Stations Pressure Air Temp Water Temp Dewpoint Dewpoint Depression Visibility Wind Speed Wind Dir Waves Ship Positions

Aegean Tiffany

Last reported at 2014-Nov-17 22:14 UTC. Time now 2014-Nov-23 07:34 UTC.
Position N 37°54' E 023°06'.

Length 80 m; draft 5.7 m.

Type: Tanker. MMSI: 240870000.

Date/timePositionNaut miles runAvg speedWind from/ knotsBaromVisibWave heightAir tempDewpointWater temp
2014-Nov-17 22:14N 37°54' E 023°06'5 7.9
2014-Nov-17 21:33N 37°55' E 023°13'8 8.0
2014-Nov-17 20:33N 37°57' E 023°22'6 6.3
2014-Nov-17 19:32N 38°01' E 023°29'3 3.0
2014-Nov-17 18:33N 38°02' E 023°32'0 0.0
2014-Nov-17 17:33N 38°02' E 023°32'0 0.0
2014-Nov-17 16:33N 38°02' E 023°32'0 0.0
2014-Nov-17 15:33N 38°02' E 023°32'0 0.0
2014-Nov-17 14:33N 38°02' E 023°32'0 0.0
2014-Nov-17 13:33N 38°02' E 023°32'0 0.0
2014-Nov-17 12:33N 38°02' E 023°32'3 3.0
2014-Nov-17 11:33N 38°02' E 023°36'0 0.0
2014-Nov-17 10:33N 38°02' E 023°36'0 0.0
2014-Nov-17 09:33N 38°02' E 023°36'0 0.0
2014-Nov-17 08:33N 38°02' E 023°36'0 0.0
2014-Nov-17 07:15N 38°02' E 023°36'0 0.0
2014-Nov-17 06:22N 38°02' E 023°36'0 0.0
2014-Nov-17 05:19N 38°02' E 023°36'0 0.0
2014-Nov-17 04:33N 38°02' E 023°36'0 0.0
2014-Nov-17 03:33N 38°02' E 023°36'0 0.2
2014-Nov-17 02:33N 38°02' E 023°35'7 7.5
2014-Nov-17 01:33N 37°60' E 023°26'7 6.7
2014-Nov-17 00:33N 37°56' E 023°19'  
2014-Nov-11 21:08N 37°58' E 023°25'7 0.7
2014-Nov-11 10:33N 38°02' E 023°32'0 0.0
2014-Nov-11 09:33N 38°02' E 023°32'1 1.0
2014-Nov-11 08:33N 38°02' E 023°31'0 0.0
2014-Nov-11 07:33N 38°02' E 023°31'0 0.0
2014-Nov-11 06:33N 38°02' E 023°31'0 0.0
2014-Nov-11 05:06N 38°02' E 023°31'0 0.0
2014-Nov-11 04:33N 38°02' E 023°31'0 0.0
2014-Nov-11 03:33N 38°02' E 023°31'0 0.0
2014-Nov-10 22:17N 38°02' E 023°31'0 0.0
2014-Nov-10 21:33N 38°02' E 023°31'1 1.0
2014-Nov-10 20:33N 38°02' E 023°32'0 0.0
2014-Nov-10 19:33N 38°02' E 023°32'0 0.0
2014-Nov-10 18:33N 38°02' E 023°32'0 0.0
2014-Nov-10 13:12N 38°02' E 023°32'0 0.0
2014-Nov-10 12:34N 38°02' E 023°32'0 0.0
2014-Nov-10 11:34N 38°02' E 023°32'0 0.0
2014-Nov-10 10:26N 38°02' E 023°32'0 0.0
2014-Nov-10 09:32N 38°02' E 023°32'0 0.0
2014-Nov-10 08:33N 38°02' E 023°32'0 0.0
2014-Nov-10 07:33N 38°02' E 023°32'  
Track history (hours):
 
Tides and Currents Weather Stations Pressure Air Temp Water Temp Dewpoint Dewpoint Depression Visibility Wind Speed Wind Dir Waves Ship Positions

Aegean Tiffany

Last reported at 2014-Nov-17 22:14 UTC. Time now 2014-Nov-23 07:34 UTC.
Position N 37°54' E 023°06'.

Length 80 m; draft 5.7 m.

Type: Tanker. MMSI: 240870000.

Date/timePositionNaut miles runAvg speedWind from/ knotsBaromVisibWave heightAir tempDewpointWater temp
2014-Nov-17 22:14N 37°54' E 023°06'5 7.9
2014-Nov-17 21:33N 37°55' E 023°13'8 8.0
2014-Nov-17 20:33N 37°57' E 023°22'6 6.3
2014-Nov-17 19:32N 38°01' E 023°29'3 3.0
2014-Nov-17 18:33N 38°02' E 023°32'0 0.0
2014-Nov-17 17:33N 38°02' E 023°32'0 0.0
2014-Nov-17 16:33N 38°02' E 023°32'0 0.0
2014-Nov-17 15:33N 38°02' E 023°32'0 0.0
2014-Nov-17 14:33N 38°02' E 023°32'0 0.0
2014-Nov-17 13:33N 38°02' E 023°32'0 0.0
2014-Nov-17 12:33N 38°02' E 023°32'3 3.0
2014-Nov-17 11:33N 38°02' E 023°36'0 0.0
2014-Nov-17 10:33N 38°02' E 023°36'0 0.0
2014-Nov-17 09:33N 38°02' E 023°36'0 0.0
2014-Nov-17 08:33N 38°02' E 023°36'0 0.0
2014-Nov-17 07:15N 38°02' E 023°36'0 0.0
2014-Nov-17 06:22N 38°02' E 023°36'0 0.0
2014-Nov-17 05:19N 38°02' E 023°36'0 0.0
2014-Nov-17 04:33N 38°02' E 023°36'0 0.0
2014-Nov-17 03:33N 38°02' E 023°36'0 0.2
2014-Nov-17 02:33N 38°02' E 023°35'7 7.5
2014-Nov-17 01:33N 37°60' E 023°26'7 6.7
2014-Nov-17 00:33N 37°56' E 023°19'  
2014-Nov-11 21:08N 37°58' E 023°25'7 0.7
2014-Nov-11 10:33N 38°02' E 023°32'0 0.0
2014-Nov-11 09:33N 38°02' E 023°32'1 1.0
2014-Nov-11 08:33N 38°02' E 023°31'0 0.0
2014-Nov-11 07:33N 38°02' E 023°31'0 0.0
2014-Nov-11 06:33N 38°02' E 023°31'0 0.0
2014-Nov-11 05:06N 38°02' E 023°31'0 0.0
2014-Nov-11 04:33N 38°02' E 023°31'0 0.0
2014-Nov-11 03:33N 38°02' E 023°31'0 0.0
2014-Nov-10 22:17N 38°02' E 023°31'0 0.0
2014-Nov-10 21:33N 38°02' E 023°31'1 1.0
2014-Nov-10 20:33N 38°02' E 023°32'0 0.0
2014-Nov-10 19:33N 38°02' E 023°32'0 0.0
2014-Nov-10 18:33N 38°02' E 023°32'0 0.0
2014-Nov-10 13:12N 38°02' E 023°32'0 0.0
2014-Nov-10 12:34N 38°02' E 023°32'0 0.0
2014-Nov-10 11:34N 38°02' E 023°32'0 0.0
2014-Nov-10 10:26N 38°02' E 023°32'0 0.0
2014-Nov-10 09:32N 38°02' E 023°32'0 0.0
2014-Nov-10 08:33N 38°02' E 023°32'0 0.0
2014-Nov-10 07:33N 38°02' E 023°32'  

Dump ship's entire track history